Corner Brook, Canada
Current Conditions -  °F | °C
As of 5:00 AM on Sunday 23 Nov 2014 (Local Time) from CYDF Reporting Station
Snow Showers Snow Showers  
Wind Chill: 20°   Ceiling: 2900
Heat Index: 30°   Visibility: 10mi
Dew Point: 27°   Wind: 14mph
Humidity: 86%   Direction: 240°WSW
Pressure: 29.58"   Gusts: 21mph
Location:  48.95°N, 57.95°W
Report Text: CYDF 230800Z 24012G18KT 10SM -SHSN OVC029 M01/M03 A2958 RMK SC8 /S02/ SLP018
Loading
Personal Weather Stations






























Interactive Weather Map New forecast layout! Learn more

10-Day Weather Forecast

Advertisements
Track Severe Weather on mobile